createdAt,value
2018-11-23T00:00:16.107Z,0.40
2018-11-23T00:02:44.688Z,0.40
2018-11-23T00:05:12.592Z,0.60
2018-11-23T00:07:40.868Z,0.40
2018-11-23T00:10:11.156Z,0.40
2018-11-23T00:12:37.792Z,0.50
2018-11-23T00:15:07.143Z,0.60
2018-11-23T00:17:34.863Z,0.70
2018-11-23T00:20:02.464Z,0.60
2018-11-23T00:22:30.033Z,0.70
2018-11-23T00:24:57.611Z,0.80
2018-11-23T00:27:25.180Z,0.80
2018-11-23T00:29:52.704Z,0.70
2018-11-23T00:32:20.260Z,0.70
2018-11-23T00:34:47.805Z,0.60
2018-11-23T00:37:15.343Z,0.40
2018-11-23T00:39:42.826Z,0.40
2018-11-23T00:42:10.483Z,0.20
2018-11-23T00:44:38.084Z,0.20
2018-11-23T00:47:05.641Z,0.20
2018-11-23T00:49:33.139Z,0.30
2018-11-23T00:52:00.731Z,0.40
2018-11-23T00:54:28.345Z,0.40
2018-11-23T00:56:56.002Z,0.30
2018-11-23T00:59:23.527Z,0.40
2018-11-23T01:01:56.779Z,0.40
2018-11-23T01:04:24.382Z,0.40
2018-11-23T01:06:51.987Z,0.50
2018-11-23T01:09:19.653Z,0.50
2018-11-23T01:11:47.193Z,0.40
2018-11-23T01:14:14.722Z,0.20
2018-11-23T01:16:42.325Z,0.20
2018-11-23T01:19:09.957Z,0.10
2018-11-23T01:21:37.455Z,0.10
2018-11-23T01:24:04.930Z,0.30
2018-11-23T01:26:32.451Z,0.20
2018-11-23T01:28:59.955Z,0.30
2018-11-23T01:31:27.444Z,0.30
2018-11-23T01:33:55.006Z,0.30
2018-11-23T01:36:22.627Z,0.30
2018-11-23T01:38:50.116Z,0.30
2018-11-23T01:41:17.698Z,0.30
2018-11-23T01:43:45.285Z,0.20
2018-11-23T01:46:12.798Z,0.10
2018-11-23T01:48:40.414Z,0.10
2018-11-23T01:51:08.065Z,0.10
2018-11-23T01:53:35.593Z,0.10
2018-11-23T01:56:03.140Z,0.10
2018-11-23T01:58:30.681Z,0.30
2018-11-23T02:00:58.182Z,0.20
2018-11-23T02:03:25.815Z,0.20
2018-11-23T02:05:53.459Z,0.30
2018-11-23T02:08:20.938Z,0.30
2018-11-23T02:10:48.544Z,0.20
2018-11-23T02:13:16.064Z,0.10
2018-11-23T02:15:43.626Z,0.10
2018-11-23T02:18:11.095Z,0.10
2018-11-23T02:20:38.727Z,0.00
2018-11-23T02:23:06.362Z,0.00
2018-11-23T02:25:33.909Z,0.00
2018-11-23T02:28:01.477Z,0.00
2018-11-23T02:30:29.048Z,0.20
2018-11-23T02:32:56.612Z,0.10
2018-11-23T02:35:24.126Z,0.00
2018-11-23T02:37:51.681Z,0.00
2018-11-23T02:40:19.961Z,-0.10
2018-11-23T02:42:47.521Z,-0.10
2018-11-23T02:45:16.819Z,0.10
2018-11-23T02:47:45.035Z,0.00
2018-11-23T02:50:12.602Z,0.00
2018-11-23T02:52:40.821Z,0.00
2018-11-23T02:55:09.419Z,-0.20
2018-11-23T02:57:37.034Z,-0.20
2018-11-23T03:00:06.612Z,-0.10
2018-11-23T03:02:34.158Z,-0.20
2018-11-23T03:05:01.770Z,-0.20
2018-11-23T03:07:29.333Z,-0.20
2018-11-23T03:09:56.889Z,-0.10
2018-11-23T03:12:24.469Z,-0.10
2018-11-23T03:14:52.045Z,0.00
2018-11-23T03:17:19.655Z,0.00
2018-11-23T03:19:47.218Z,0.00
2018-11-23T03:22:14.822Z,-0.10
2018-11-23T03:24:42.345Z,-0.10
2018-11-23T03:27:09.846Z,-0.10
2018-11-23T03:29:37.335Z,0.00
2018-11-23T03:32:04.919Z,0.00
2018-11-23T03:34:32.509Z,-0.10
2018-11-23T03:37:00.143Z,-0.10
2018-11-23T03:39:30.391Z,0.00
2018-11-23T03:41:55.370Z,-0.10
2018-11-23T03:44:22.929Z,-0.20
2018-11-23T03:46:50.442Z,-0.30
2018-11-23T03:49:17.978Z,-0.30
2018-11-23T03:51:45.522Z,-0.40
2018-11-23T03:54:13.047Z,-0.40
2018-11-23T03:56:40.697Z,-0.30
2018-11-23T03:59:08.298Z,-0.40
2018-11-23T04:01:35.922Z,-0.40
2018-11-23T04:04:03.836Z,-0.30
2018-11-23T04:06:31.351Z,-0.30
2018-11-23T04:08:58.864Z,-0.30
2018-11-23T04:11:26.373Z,-0.30
2018-11-23T04:13:53.993Z,-0.30
2018-11-23T04:16:21.456Z,-0.30
2018-11-23T04:18:49.099Z,-0.30
2018-11-23T04:21:16.609Z,-0.30
2018-11-23T04:23:44.104Z,-0.30
2018-11-23T04:26:11.627Z,-0.20
2018-11-23T04:28:39.217Z,-0.20
2018-11-23T04:31:06.722Z,-0.20
2018-11-23T04:33:34.331Z,-0.20
2018-11-23T04:36:01.879Z,-0.20
2018-11-23T04:38:29.527Z,-0.20
2018-11-23T04:40:57.085Z,-0.20
2018-11-23T04:43:24.646Z,-0.10
2018-11-23T04:45:52.207Z,-0.10
2018-11-23T04:48:19.697Z,-0.20
2018-11-23T04:50:47.244Z,-0.10
2018-11-23T04:53:14.839Z,-0.10
2018-11-23T04:55:42.405Z,-0.10
2018-11-23T04:58:10.040Z,-0.10
2018-11-23T05:00:37.659Z,-0.10
2018-11-23T05:03:05.313Z,-0.10
2018-11-23T05:05:32.918Z,-0.10
2018-11-23T05:08:00.444Z,-0.10
2018-11-23T05:10:28.020Z,-0.10
2018-11-23T05:12:55.525Z,-0.10
2018-11-23T05:15:23.105Z,-0.10
2018-11-23T05:17:50.734Z,-0.10
2018-11-23T05:20:18.258Z,-0.10
2018-11-23T05:22:45.795Z,-0.10
2018-11-23T05:25:14.708Z,-0.10
2018-11-23T05:27:42.301Z,-0.20
2018-11-23T05:30:12.145Z,-0.20
2018-11-23T05:32:39.961Z,-0.20
2018-11-23T05:35:08.547Z,-0.20
2018-11-23T05:37:36.233Z,-0.20
2018-11-23T05:40:05.565Z,-0.20
2018-11-23T05:42:33.037Z,-0.20
2018-11-23T05:45:00.577Z,-0.10
2018-11-23T05:47:28.133Z,-0.10
2018-11-23T05:49:55.607Z,-0.10
2018-11-23T05:52:23.210Z,0.00
2018-11-23T05:54:50.919Z,-0.10
2018-11-23T05:57:18.487Z,-0.10
2018-11-23T05:59:46.057Z,-0.10
2018-11-23T06:02:13.674Z,-0.20
2018-11-23T06:04:41.163Z,-0.20
2018-11-23T06:07:08.707Z,-0.30
2018-11-23T06:09:36.228Z,-0.30
2018-11-23T06:12:03.843Z,-0.40
2018-11-23T06:14:31.424Z,-0.40
2018-11-23T06:16:58.947Z,-0.40
2018-11-23T06:19:26.461Z,-0.40
2018-11-23T06:21:53.986Z,-0.40
2018-11-23T06:24:21.590Z,-0.30
2018-11-23T06:26:49.127Z,-0.40
2018-11-23T06:29:16.594Z,-0.40
2018-11-23T06:31:44.070Z,-0.40
2018-11-23T06:34:11.689Z,-0.30
2018-11-23T06:36:39.357Z,-0.20
2018-11-23T06:39:07.865Z,-0.30
2018-11-23T06:41:35.527Z,-0.30
2018-11-23T06:44:03.183Z,-0.30
2018-11-23T06:46:30.828Z,-0.20
2018-11-23T06:48:58.309Z,-0.20
2018-11-23T06:51:25.810Z,-0.30
2018-11-23T06:53:53.588Z,-0.30
2018-11-23T06:56:21.132Z,-0.30
2018-11-23T06:58:48.684Z,-0.30
2018-11-23T07:01:16.274Z,-0.30
2018-11-23T07:03:43.862Z,-0.30
2018-11-23T07:06:11.416Z,-0.30
2018-11-23T07:08:39.077Z,-0.30
2018-11-23T07:11:06.739Z,-0.20
2018-11-23T07:13:34.236Z,-0.10
2018-11-23T07:16:01.799Z,-0.10
2018-11-23T07:18:29.362Z,-0.20
2018-11-23T07:20:56.997Z,-0.20
2018-11-23T07:23:24.529Z,-0.20
2018-11-23T07:25:52.199Z,-0.20
2018-11-23T07:28:19.703Z,-0.20
2018-11-23T07:30:47.294Z,-0.20
2018-11-23T07:33:14.911Z,-0.10
2018-11-23T07:35:42.510Z,-0.10
2018-11-23T07:38:10.061Z,-0.10
2018-11-23T07:40:50.227Z,-0.20
2018-11-23T07:43:17.723Z,-0.20
2018-11-23T07:45:45.249Z,-0.20
2018-11-23T07:48:12.806Z,-0.20
2018-11-23T07:50:40.359Z,-0.20
2018-11-23T07:53:08.224Z,-0.20
2018-11-23T07:55:35.790Z,-0.20
2018-11-23T07:58:03.738Z,-0.20
2018-11-23T08:00:31.397Z,-0.30
2018-11-23T08:02:59.077Z,-0.30
2018-11-23T08:05:26.588Z,-0.30
2018-11-23T08:07:54.166Z,-0.40
2018-11-23T08:10:21.260Z,-0.40
2018-11-23T08:12:49.765Z,-0.30
2018-11-23T08:15:19.243Z,-0.30
2018-11-23T08:17:46.850Z,-0.30
2018-11-23T08:20:15.560Z,-0.30
2018-11-23T08:22:43.310Z,-0.40
2018-11-23T08:25:12.054Z,-0.30
2018-11-23T08:27:39.970Z,-0.40
2018-11-23T08:30:11.689Z,-0.40
2018-11-23T08:32:39.327Z,-0.40
2018-11-23T08:35:06.960Z,-0.40
2018-11-23T08:37:34.663Z,-0.40
2018-11-23T08:40:02.616Z,-0.40
2018-11-23T08:42:30.361Z,-0.40
2018-11-23T08:44:57.956Z,-0.40
2018-11-23T08:47:25.576Z,-0.40
2018-11-23T08:49:53.136Z,-0.40
2018-11-23T08:52:20.637Z,-0.30
2018-11-23T08:54:48.231Z,-0.30
2018-11-23T08:57:15.783Z,-0.30
2018-11-23T08:59:43.393Z,-0.20
2018-11-23T09:02:10.940Z,-0.20
2018-11-23T09:04:38.539Z,-0.20
2018-11-23T09:07:06.092Z,-0.20
2018-11-23T09:09:34.010Z,-0.10
2018-11-23T09:12:01.275Z,-0.10
2018-11-23T09:14:28.907Z,-0.10
2018-11-23T09:16:56.536Z,-0.10
2018-11-23T09:19:24.153Z,-0.10
2018-11-23T09:21:51.739Z,-0.10
2018-11-23T09:24:19.513Z,-0.10
2018-11-23T09:26:47.063Z,-0.10
2018-11-23T09:29:14.647Z,-0.10
2018-11-23T09:31:42.199Z,0.00
2018-11-23T09:34:09.744Z,-0.10
2018-11-23T09:36:37.342Z,-0.10
2018-11-23T09:39:06.918Z,-0.10
2018-11-23T09:41:34.654Z,-0.10
2018-11-23T09:44:02.192Z,-0.10
2018-11-23T09:46:29.826Z,0.00
2018-11-23T09:48:57.440Z,0.00
2018-11-23T09:51:25.065Z,0.00
2018-11-23T09:53:52.788Z,0.10
2018-11-23T09:56:20.927Z,0.10
2018-11-23T09:58:48.487Z,0.10
2018-11-23T10:01:15.944Z,0.10
2018-11-23T10:03:43.580Z,0.10
2018-11-23T10:06:11.144Z,0.10
2018-11-23T10:08:38.678Z,0.10
2018-11-23T10:11:06.281Z,0.10
2018-11-23T10:13:33.869Z,0.00
2018-11-23T10:16:01.558Z,0.00
2018-11-23T10:18:29.178Z,0.10
2018-11-23T10:20:56.840Z,0.10
2018-11-23T10:23:24.530Z,0.10
2018-11-23T10:25:52.102Z,0.10
2018-11-23T10:28:19.629Z,0.10
2018-11-23T10:30:47.227Z,0.10
2018-11-23T10:33:14.849Z,0.10
2018-11-23T10:35:42.449Z,0.10
2018-11-23T10:38:10.078Z,0.10
2018-11-23T10:40:39.078Z,0.10
2018-11-23T10:43:06.845Z,0.10
2018-11-23T10:45:34.621Z,0.10
2018-11-23T10:48:03.163Z,0.10
2018-11-23T10:50:32.219Z,0.10
2018-11-23T10:52:59.777Z,0.10
2018-11-23T10:55:29.050Z,0.10
2018-11-23T10:57:56.528Z,0.10
2018-11-23T11:00:29.796Z,0.10
2018-11-23T11:03:07.860Z,0.10
2018-11-23T11:05:41.015Z,0.10
2018-11-23T11:08:08.563Z,0.10
2018-11-23T11:10:36.139Z,0.10
2018-11-23T11:13:04.041Z,0.20
2018-11-23T11:15:31.584Z,0.10
2018-11-23T11:17:59.100Z,0.10
2018-11-23T11:20:26.647Z,0.10
2018-11-23T11:22:54.222Z,0.10
2018-11-23T11:25:21.839Z,0.10
2018-11-23T11:27:49.533Z,0.10
2018-11-23T11:30:17.817Z,0.10
2018-11-23T11:32:46.114Z,0.20
2018-11-23T11:35:13.794Z,0.20
2018-11-23T11:37:42.065Z,0.20
2018-11-23T11:40:11.537Z,0.20
2018-11-23T11:42:39.835Z,0.20
2018-11-23T11:45:08.994Z,0.20
2018-11-23T11:47:36.583Z,0.20
2018-11-23T11:50:06.472Z,0.20
2018-11-23T11:52:34.481Z,0.20
2018-11-23T11:55:02.100Z,0.20
2018-11-23T11:57:29.725Z,0.20
2018-11-23T11:59:57.290Z,0.20
2018-11-23T12:02:24.947Z,0.20
2018-11-23T12:04:52.475Z,0.20
2018-11-23T12:07:20.008Z,0.20
2018-11-23T12:09:47.647Z,0.10
2018-11-23T12:12:15.170Z,0.20
2018-11-23T12:14:42.745Z,0.20
2018-11-23T12:17:10.281Z,0.10
2018-11-23T12:19:37.844Z,0.20
2018-11-23T12:22:05.512Z,0.20
2018-11-23T12:24:33.058Z,0.20
2018-11-23T12:27:00.602Z,0.20
2018-11-23T12:29:28.195Z,0.20
2018-11-23T12:31:55.753Z,0.20
2018-11-23T12:34:23.269Z,0.20
2018-11-23T12:36:50.868Z,0.10
2018-11-23T12:39:18.424Z,0.10
2018-11-23T12:41:45.943Z,0.10
2018-11-23T12:44:13.567Z,0.20
2018-11-23T12:46:41.077Z,0.10
2018-11-23T12:49:08.692Z,0.20
2018-11-23T12:51:36.253Z,0.20
2018-11-23T12:54:04.416Z,0.20
2018-11-23T12:56:31.975Z,0.10
2018-11-23T12:58:59.559Z,0.20
2018-11-23T13:01:27.129Z,0.20
2018-11-23T13:03:54.763Z,0.20
2018-11-23T13:06:22.345Z,0.20
2018-11-23T13:15:16.959Z,0.20
2018-11-23T13:17:49.384Z,0.20
2018-11-23T13:20:16.899Z,0.20
2018-11-23T13:22:44.592Z,0.20
2018-11-23T13:25:14.603Z,0.20
2018-11-23T13:27:43.039Z,0.20
2018-11-23T13:30:13.347Z,0.20
2018-11-23T13:32:44.910Z,0.20
2018-11-23T13:35:14.203Z,0.30
2018-11-23T13:37:44.615Z,0.30
2018-11-23T13:40:16.186Z,0.30
2018-11-23T13:42:45.835Z,0.20
2018-11-23T13:45:16.533Z,0.30
2018-11-23T13:47:45.670Z,0.30
2018-11-23T13:50:16.941Z,0.30
2018-11-23T13:52:52.656Z,0.30
2018-11-23T13:55:20.287Z,0.30
2018-11-23T13:57:47.867Z,0.30
2018-11-23T14:00:17.917Z,0.30
2018-11-23T14:02:46.179Z,0.30
2018-11-23T14:05:15.182Z,0.30
2018-11-23T14:07:43.953Z,0.30
2018-11-23T14:10:13.731Z,0.30
2018-11-23T14:12:48.251Z,0.30
2018-11-23T14:15:19.332Z,0.30
2018-11-23T14:17:48.023Z,0.30
2018-11-23T14:20:16.547Z,0.30
2018-11-23T14:22:44.153Z,0.30
2018-11-23T14:25:13.371Z,0.30
2018-11-23T14:27:41.333Z,0.30
2018-11-23T14:30:11.261Z,0.30
2018-11-23T14:32:39.143Z,0.30
2018-11-23T14:35:07.724Z,0.30
2018-11-23T14:37:35.826Z,0.40
2018-11-23T14:40:03.471Z,0.40
2018-11-23T14:42:30.979Z,0.40
2018-11-23T14:44:58.562Z,0.40
2018-11-23T14:47:26.207Z,0.40
2018-11-23T14:49:53.891Z,0.40
2018-11-23T14:52:21.588Z,0.50
2018-11-23T14:54:49.152Z,0.50
2018-11-23T14:57:16.961Z,0.50
2018-11-23T14:59:44.716Z,0.50
2018-11-23T15:02:12.273Z,0.50
2018-11-23T15:04:39.849Z,0.50
2018-11-23T15:07:07.407Z,0.50
2018-11-23T15:09:35.002Z,0.50
2018-11-23T15:12:02.644Z,0.50
2018-11-23T15:14:30.122Z,0.60
2018-11-23T15:16:57.704Z,0.60
2018-11-23T15:19:25.265Z,0.60
2018-11-23T15:21:53.122Z,0.60
2018-11-23T15:24:20.801Z,0.60
2018-11-23T15:26:48.466Z,0.60
2018-11-23T15:29:15.978Z,0.60
2018-11-23T15:31:43.544Z,0.60
2018-11-23T15:34:11.341Z,0.70
2018-11-23T15:36:38.875Z,0.70
2018-11-23T15:39:08.991Z,0.70
2018-11-23T15:41:36.918Z,0.70
2018-11-23T15:44:05.014Z,0.70
2018-11-23T15:46:37.059Z,0.70
2018-11-23T15:49:07.040Z,0.70
2018-11-23T15:51:34.794Z,0.70
2018-11-23T15:54:02.776Z,0.80
2018-11-23T15:56:30.371Z,0.70
2018-11-23T15:58:59.578Z,0.70
2018-11-23T16:01:27.311Z,0.70
2018-11-23T16:03:57.297Z,0.70
2018-11-23T16:06:27.950Z,0.70
2018-11-23T16:08:57.416Z,0.80
2018-11-23T16:11:25.111Z,0.80
2018-11-23T16:13:52.781Z,0.80
2018-11-23T16:16:20.702Z,0.80
2018-11-23T16:18:48.256Z,0.80
2018-11-23T16:21:15.871Z,0.80
2018-11-23T16:23:43.495Z,0.80
2018-11-23T16:26:11.106Z,0.80
2018-11-23T16:28:38.831Z,0.90
2018-11-23T16:31:06.772Z,0.90
2018-11-23T16:33:34.513Z,0.90
2018-11-23T16:36:02.081Z,0.90
2018-11-23T16:38:29.814Z,0.90
2018-11-23T16:40:57.466Z,0.90
2018-11-23T16:43:25.073Z,0.90
2018-11-23T16:45:53.228Z,1.00
2018-11-23T16:48:21.770Z,1.00
2018-11-23T16:50:49.469Z,0.90
2018-11-23T16:53:16.977Z,1.00
2018-11-23T16:55:44.602Z,1.00
2018-11-23T16:58:12.966Z,1.00
2018-11-23T17:00:42.996Z,1.00
2018-11-23T17:03:12.397Z,1.00
2018-11-23T17:05:41.378Z,1.00
2018-11-23T17:08:09.261Z,1.00
2018-11-23T17:10:37.735Z,1.00
2018-11-23T17:13:05.291Z,1.00
2018-11-23T17:15:32.843Z,1.00
2018-11-23T17:18:00.338Z,1.10
2018-11-23T17:20:29.294Z,1.10
2018-11-23T17:22:58.078Z,1.10
2018-11-23T17:25:26.350Z,1.10
2018-11-23T17:27:54.969Z,1.10
2018-11-23T17:30:25.177Z,1.10
2018-11-23T17:32:52.963Z,1.00
2018-11-23T17:35:20.680Z,1.10
2018-11-23T17:37:48.254Z,1.00
2018-11-23T17:40:17.173Z,1.10
2018-11-23T17:42:44.724Z,1.00
2018-11-23T17:45:13.835Z,1.00
2018-11-23T17:47:41.465Z,1.00
2018-11-23T17:50:10.384Z,1.10
2018-11-23T17:52:37.891Z,1.10
2018-11-23T17:55:06.473Z,1.10
2018-11-23T17:57:34.090Z,1.10
2018-11-23T18:00:01.680Z,1.10
2018-11-23T18:02:30.047Z,1.10
2018-11-23T18:04:57.572Z,1.10
2018-11-23T18:07:25.211Z,1.10
2018-11-23T18:09:52.743Z,1.10
2018-11-23T18:12:20.308Z,1.10
2018-11-23T18:14:47.873Z,1.10
2018-11-23T18:17:15.664Z,1.20
2018-11-23T18:19:43.233Z,1.10
2018-11-23T18:22:10.806Z,1.20
2018-11-23T18:24:38.549Z,1.20
2018-11-23T18:27:06.270Z,1.20
2018-11-23T18:29:33.864Z,1.20
2018-11-23T18:32:01.473Z,1.20
2018-11-23T18:34:29.088Z,1.20
2018-11-23T18:36:56.695Z,1.20
2018-11-23T18:39:24.432Z,1.20
2018-11-23T18:41:52.088Z,1.20
2018-11-23T18:44:19.729Z,1.20
2018-11-23T18:46:47.376Z,1.20
2018-11-23T18:49:15.036Z,1.20
2018-11-23T18:51:42.585Z,1.20
2018-11-23T18:54:10.174Z,1.20
2018-11-23T18:56:37.796Z,1.20
2018-11-23T18:59:05.414Z,1.30
2018-11-23T19:01:32.962Z,1.30
2018-11-23T19:04:00.651Z,1.30
2018-11-23T19:06:28.263Z,1.30
2018-11-23T19:08:55.855Z,1.40
2018-11-23T19:11:23.434Z,1.40
2018-11-23T19:13:51.204Z,1.40
2018-11-23T19:16:18.919Z,1.40
2018-11-23T19:18:46.476Z,1.40
2018-11-23T19:21:14.075Z,1.40
2018-11-23T19:23:41.570Z,1.40
2018-11-23T19:26:09.157Z,1.40
2018-11-23T19:28:36.731Z,1.40
2018-11-23T19:31:04.720Z,1.40
2018-11-23T19:33:32.371Z,1.40
2018-11-23T19:36:00.007Z,1.30
2018-11-23T19:38:27.552Z,1.30
2018-11-23T19:40:55.163Z,1.30
2018-11-23T19:43:22.745Z,1.30
2018-11-23T19:45:50.349Z,1.30
2018-11-23T19:48:17.909Z,1.30
2018-11-23T19:50:45.537Z,1.30
2018-11-23T19:53:13.159Z,1.30
2018-11-23T19:55:40.826Z,1.30
2018-11-23T19:58:08.359Z,1.30
2018-11-23T20:00:35.965Z,1.30
2018-11-23T20:03:03.672Z,1.30
2018-11-23T20:05:31.259Z,1.40
2018-11-23T20:07:58.926Z,1.40
2018-11-23T20:10:26.449Z,1.30
2018-11-23T20:12:55.419Z,1.30
2018-11-23T20:15:22.995Z,1.30
2018-11-23T20:17:50.594Z,1.30
2018-11-23T20:20:18.229Z,1.30
2018-11-23T20:22:46.781Z,1.30
2018-11-23T20:25:16.241Z,1.30
2018-11-23T20:27:44.394Z,1.40
2018-11-23T20:30:14.060Z,1.40
2018-11-23T20:32:41.752Z,1.40
2018-11-23T20:35:11.488Z,1.40
2018-11-23T20:37:39.121Z,1.40
2018-11-23T20:40:22.633Z,1.50
2018-11-23T20:42:50.397Z,1.50
2018-11-23T20:45:18.198Z,1.50
2018-11-23T20:47:45.777Z,1.50
2018-11-23T20:50:14.502Z,1.40
2018-11-23T20:52:42.151Z,1.50
2018-11-23T20:55:10.939Z,1.50
2018-11-23T20:57:38.518Z,1.50
2018-11-23T21:00:12.275Z,1.50
2018-11-23T21:02:39.832Z,1.50
2018-11-23T21:05:08.776Z,1.50
2018-11-23T21:07:36.633Z,1.50
2018-11-23T21:10:08.525Z,1.50
2018-11-23T21:12:36.117Z,1.50
2018-11-23T21:15:04.071Z,1.60
2018-11-23T21:17:31.667Z,1.60
2018-11-23T21:19:59.238Z,1.60
2018-11-23T21:22:26.767Z,1.60
2018-11-23T21:24:54.341Z,1.60
2018-11-23T21:27:21.893Z,1.60
2018-11-23T21:29:49.477Z,1.60
2018-11-23T21:32:17.114Z,1.60
2018-11-23T21:34:44.706Z,1.70
2018-11-23T21:37:12.321Z,1.70
2018-11-23T21:39:39.909Z,1.70
2018-11-23T21:42:07.578Z,1.70
2018-11-23T21:44:35.148Z,1.70
2018-11-23T21:47:02.786Z,1.70
2018-11-23T21:49:30.244Z,1.80
2018-11-23T21:51:57.783Z,1.80
2018-11-23T21:54:25.437Z,1.80
2018-11-23T21:56:53.091Z,1.80
2018-11-23T21:59:20.681Z,1.80
2018-11-23T22:01:48.144Z,1.80
2018-11-23T22:04:15.723Z,1.80
2018-11-23T22:06:43.376Z,1.80
2018-11-23T22:09:10.943Z,1.80
2018-11-23T22:11:38.445Z,1.80
2018-11-23T22:14:06.055Z,1.90
2018-11-23T22:16:33.599Z,1.80
2018-11-23T22:19:01.100Z,1.90
2018-11-23T22:21:28.641Z,1.90
2018-11-23T22:24:01.399Z,1.90
2018-11-23T22:26:23.867Z,1.90
2018-11-23T22:28:51.469Z,1.90
2018-11-23T22:31:19.054Z,1.90
2018-11-23T22:33:46.575Z,1.90
2018-11-23T22:36:14.155Z,1.90
2018-11-23T22:38:41.685Z,1.90
2018-11-23T22:41:09.408Z,1.90
2018-11-23T22:43:36.976Z,1.90
2018-11-23T22:46:04.797Z,1.90
2018-11-23T22:48:32.296Z,1.90
2018-11-23T22:50:59.889Z,1.90
2018-11-23T22:53:27.395Z,2.00
2018-11-23T22:55:54.949Z,2.00
2018-11-23T22:58:22.477Z,1.90
2018-11-23T23:00:54.597Z,2.00
2018-11-23T23:03:22.172Z,2.00
2018-11-23T23:05:49.818Z,2.00
2018-11-23T23:08:17.276Z,2.00
2018-11-23T23:10:45.741Z,2.00
2018-11-23T23:13:13.382Z,2.00
2018-11-23T23:15:40.863Z,2.00
2018-11-23T23:18:08.362Z,2.00
2018-11-23T23:20:36.006Z,2.00
2018-11-23T23:23:03.872Z,2.00
2018-11-23T23:25:31.519Z,2.00
2018-11-23T23:27:59.072Z,2.00
2018-11-23T23:30:26.621Z,2.00
2018-11-23T23:32:54.212Z,2.00
2018-11-23T23:35:21.806Z,2.00
2018-11-23T23:37:49.347Z,1.90
2018-11-23T23:40:17.318Z,2.00
2018-11-23T23:42:45.237Z,1.90
2018-11-23T23:45:13.759Z,1.90
2018-11-23T23:47:41.347Z,2.00
2018-11-23T23:50:15.203Z,2.00
2018-11-23T23:52:42.818Z,2.00
2018-11-23T23:55:10.546Z,2.00
2018-11-23T23:57:39.101Z,2.00
